sensor_id;sensor_type;location;lat;lon;timestamp;temperature;humidity
7842;DHT22;3966;51.052;13.820;2023-01-15T00:00:56;9.70;99.90
7842;DHT22;3966;51.052;13.820;2023-01-15T00:03:22;9.70;99.90
7842;DHT22;3966;51.052;13.820;2023-01-15T00:05:48;9.70;99.90
7842;DHT22;3966;51.052;13.820;2023-01-15T00:08:14;9.70;99.90
7842;DHT22;3966;51.052;13.820;2023-01-15T00:10:39;9.80;99.90
7842;DHT22;3966;51.052;13.820;2023-01-15T00:13:05;9.80;99.90
7842;DHT22;3966;51.052;13.820;2023-01-15T00:15:31;9.80;99.90
7842;DHT22;3966;51.052;13.820;2023-01-15T00:17:56;9.70;99.90
7842;DHT22;3966;51.052;13.820;2023-01-15T00:20:22;9.80;99.90
7842;DHT22;3966;51.052;13.820;2023-01-15T00:22:48;9.80;99.90
7842;DHT22;3966;51.052;13.820;2023-01-15T00:25:13;9.80;99.90
7842;DHT22;3966;51.052;13.820;2023-01-15T00:27:57;9.90;99.90
7842;DHT22;3966;51.052;13.820;2023-01-15T00:30:23;9.90;99.90
7842;DHT22;3966;51.052;13.820;2023-01-15T00:32:49;10.00;99.90
7842;DHT22;3966;51.052;13.820;2023-01-15T00:35:22;10.00;99.90
7842;DHT22;3966;51.052;13.820;2023-01-15T00:37:48;10.00;99.90
7842;DHT22;3966;51.052;13.820;2023-01-15T00:40:15;10.00;99.90
7842;DHT22;3966;51.052;13.820;2023-01-15T00:42:41;10.00;99.90
7842;DHT22;3966;51.052;13.820;2023-01-15T00:45:09;10.10;99.90
7842;DHT22;3966;51.052;13.820;2023-01-15T00:47:40;10.10;99.90
7842;DHT22;3966;51.052;13.820;2023-01-15T00:50:09;10.10;99.90
7842;DHT22;3966;51.052;13.820;2023-01-15T00:52:35;10.20;99.90
7842;DHT22;3966;51.052;13.820;2023-01-15T00:55:00;10.20;99.90
7842;DHT22;3966;51.052;13.820;2023-01-15T00:57:26;10.20;99.90
7842;DHT22;3966;51.052;13.820;2023-01-15T00:59:52;10.30;99.90
7842;DHT22;3966;51.052;13.820;2023-01-15T01:02:18;10.30;99.90
7842;DHT22;3966;51.052;13.820;2023-01-15T01:04:43;10.40;99.90
7842;DHT22;3966;51.052;13.820;2023-01-15T01:07:09;10.50;99.90
7842;DHT22;3966;51.052;13.820;2023-01-15T01:09:35;10.50;99.90
7842;DHT22;3966;51.052;13.820;2023-01-15T01:12:00;10.50;99.90
7842;DHT22;3966;51.052;13.820;2023-01-15T01:14:27;10.50;99.90
7842;DHT22;3966;51.052;13.820;2023-01-15T01:16:53;10.60;99.90
7842;DHT22;3966;51.052;13.820;2023-01-15T01:19:21;10.60;99.90
7842;DHT22;3966;51.052;13.820;2023-01-15T01:21:48;10.60;99.90
7842;DHT22;3966;51.052;13.820;2023-01-15T01:24:19;10.60;99.90
7842;DHT22;3966;51.052;13.820;2023-01-15T01:26:45;10.60;99.90
7842;DHT22;3966;51.052;13.820;2023-01-15T01:29:12;10.60;99.90
7842;DHT22;3966;51.052;13.820;2023-01-15T01:31:39;10.60;99.90
7842;DHT22;3966;51.052;13.820;2023-01-15T01:34:05;10.60;99.90
7842;DHT22;3966;51.052;13.820;2023-01-15T01:36:34;10.60;99.90
7842;DHT22;3966;51.052;13.820;2023-01-15T01:39:05;10.70;99.90
7842;DHT22;3966;51.052;13.820;2023-01-15T01:41:32;10.60;99.90
7842;DHT22;3966;51.052;13.820;2023-01-15T01:44:53;10.60;99.90
7842;DHT22;3966;51.052;13.820;2023-01-15T01:46:52;10.50;99.90
7842;DHT22;3966;51.052;13.820;2023-01-15T01:49:18;10.50;99.90
7842;DHT22;3966;51.052;13.820;2023-01-15T01:51:54;10.30;99.90
7842;DHT22;3966;51.052;13.820;2023-01-15T01:54:24;10.20;99.90
7842;DHT22;3966;51.052;13.820;2023-01-15T01:56:50;10.10;99.90
7842;DHT22;3966;51.052;13.820;2023-01-15T01:59:18;10.20;99.90
7842;DHT22;3966;51.052;13.820;2023-01-15T02:01:45;10.10;99.90
7842;DHT22;3966;51.052;13.820;2023-01-15T02:04:12;10.00;99.90
7842;DHT22;3966;51.052;13.820;2023-01-15T02:06:40;10.00;99.90
7842;DHT22;3966;51.052;13.820;2023-01-15T02:09:07;10.00;99.90
7842;DHT22;3966;51.052;13.820;2023-01-15T02:11:36;10.00;99.90
7842;DHT22;3966;51.052;13.820;2023-01-15T02:22:34;10.00;99.90
7842;DHT22;3966;51.052;13.820;2023-01-15T02:27:37;10.00;99.90
7842;DHT22;3966;51.052;13.820;2023-01-15T02:30:29;10.00;99.90
7842;DHT22;3966;51.052;13.820;2023-01-15T02:33:08;10.10;99.90
7842;DHT22;3966;51.052;13.820;2023-01-15T02:35:41;10.10;99.90
7842;DHT22;3966;51.052;13.820;2023-01-15T02:38:09;10.20;99.90
7842;DHT22;3966;51.052;13.820;2023-01-15T02:40:37;10.20;99.90
7842;DHT22;3966;51.052;13.820;2023-01-15T02:43:04;10.20;99.90
7842;DHT22;3966;51.052;13.820;2023-01-15T02:45:33;10.30;99.90
7842;DHT22;3966;51.052;13.820;2023-01-15T02:48:06;10.40;99.90
7842;DHT22;3966;51.052;13.820;2023-01-15T02:50:36;10.50;99.90
7842;DHT22;3966;51.052;13.820;2023-01-15T02:53:08;10.50;99.90
7842;DHT22;3966;51.052;13.820;2023-01-15T02:55:39;10.50;99.90
7842;DHT22;3966;51.052;13.820;2023-01-15T02:58:09;10.50;99.90
7842;DHT22;3966;51.052;13.820;2023-01-15T03:00:38;10.60;99.90
7842;DHT22;3966;51.052;13.820;2023-01-15T03:03:23;10.60;99.90
7842;DHT22;3966;51.052;13.820;2023-01-15T03:08:24;10.60;99.90
7842;DHT22;3966;51.052;13.820;2023-01-15T03:21:40;10.80;99.90
7842;DHT22;3966;51.052;13.820;2023-01-15T03:24:10;10.80;99.90
7842;DHT22;3966;51.052;13.820;2023-01-15T03:26:37;10.80;99.90
7842;DHT22;3966;51.052;13.820;2023-01-15T03:29:05;10.80;99.90
7842;DHT22;3966;51.052;13.820;2023-01-15T03:31:33;10.80;99.90
7842;DHT22;3966;51.052;13.820;2023-01-15T03:33:58;10.80;99.90
7842;DHT22;3966;51.052;13.820;2023-01-15T03:36:24;10.80;99.90
7842;DHT22;3966;51.052;13.820;2023-01-15T03:38:50;10.90;99.90
7842;DHT22;3966;51.052;13.820;2023-01-15T03:44:06;10.80;99.90
7842;DHT22;3966;51.052;13.820;2023-01-15T03:57:35;10.80;99.90
7842;DHT22;3966;51.052;13.820;2023-01-15T04:00:20;10.70;99.90
7842;DHT22;3966;51.052;13.820;2023-01-15T04:02:46;10.60;99.90
7842;DHT22;3966;51.052;13.820;2023-01-15T04:05:14;10.60;99.90
7842;DHT22;3966;51.052;13.820;2023-01-15T04:07:41;10.60;99.90
7842;DHT22;3966;51.052;13.820;2023-01-15T04:10:08;10.60;99.90
7842;DHT22;3966;51.052;13.820;2023-01-15T04:12:34;10.50;99.90
7842;DHT22;3966;51.052;13.820;2023-01-15T04:15:00;10.50;99.90
7842;DHT22;3966;51.052;13.820;2023-01-15T04:17:25;10.50;99.90
7842;DHT22;3966;51.052;13.820;2023-01-15T04:19:51;10.40;99.90
7842;DHT22;3966;51.052;13.820;2023-01-15T04:22:16;10.40;99.90
7842;DHT22;3966;51.052;13.820;2023-01-15T04:24:42;10.50;99.90
7842;DHT22;3966;51.052;13.820;2023-01-15T04:27:08;10.60;99.90
7842;DHT22;3966;51.052;13.820;2023-01-15T04:29:33;10.60;99.90
7842;DHT22;3966;51.052;13.820;2023-01-15T04:31:59;10.70;99.90
7842;DHT22;3966;51.052;13.820;2023-01-15T04:34:26;10.70;99.90
7842;DHT22;3966;51.052;13.820;2023-01-15T04:36:53;10.70;99.90
7842;DHT22;3966;51.052;13.820;2023-01-15T04:39:18;10.70;99.90
7842;DHT22;3966;51.052;13.820;2023-01-15T04:41:44;10.70;99.90
7842;DHT22;3966;51.052;13.820;2023-01-15T04:44:29;10.70;99.90
7842;DHT22;3966;51.052;13.820;2023-01-15T04:46:55;10.70;99.90
7842;DHT22;3966;51.052;13.820;2023-01-15T04:49:22;10.70;99.90
7842;DHT22;3966;51.052;13.820;2023-01-15T04:51:48;10.60;99.90
7842;DHT22;3966;51.052;13.820;2023-01-15T04:54:15;10.60;99.90
7842;DHT22;3966;51.052;13.820;2023-01-15T04:56:45;10.50;99.90
7842;DHT22;3966;51.052;13.820;2023-01-15T04:59:13;10.60;99.90
7842;DHT22;3966;51.052;13.820;2023-01-15T05:01:40;10.60;99.90
7842;DHT22;3966;51.052;13.820;2023-01-15T05:04:05;10.60;99.90
7842;DHT22;3966;51.052;13.820;2023-01-15T05:06:31;10.50;99.90
7842;DHT22;3966;51.052;13.820;2023-01-15T05:08:58;10.50;99.90
7842;DHT22;3966;51.052;13.820;2023-01-15T05:11:24;10.50;99.90
7842;DHT22;3966;51.052;13.820;2023-01-15T05:13:50;10.50;99.90
7842;DHT22;3966;51.052;13.820;2023-01-15T05:16:18;10.40;99.90
7842;DHT22;3966;51.052;13.820;2023-01-15T05:18:45;10.40;99.90
7842;DHT22;3966;51.052;13.820;2023-01-15T05:21:26;10.40;99.90
7842;DHT22;3966;51.052;13.820;2023-01-15T05:23:54;10.40;99.90
7842;DHT22;3966;51.052;13.820;2023-01-15T05:26:22;10.40;99.90
7842;DHT22;3966;51.052;13.820;2023-01-15T05:28:51;10.40;99.90
7842;DHT22;3966;51.052;13.820;2023-01-15T05:31:18;10.40;99.90
7842;DHT22;3966;51.052;13.820;2023-01-15T05:33:45;10.40;99.90
7842;DHT22;3966;51.052;13.820;2023-01-15T05:36:13;10.40;99.90
7842;DHT22;3966;51.052;13.820;2023-01-15T05:38:40;10.40;99.90
7842;DHT22;3966;51.052;13.820;2023-01-15T05:41:07;10.40;99.90
7842;DHT22;3966;51.052;13.820;2023-01-15T05:43:52;10.40;99.90
7842;DHT22;3966;51.052;13.820;2023-01-15T05:46:17;10.40;99.90
7842;DHT22;3966;51.052;13.820;2023-01-15T05:48:43;10.40;99.90
7842;DHT22;3966;51.052;13.820;2023-01-15T05:51:09;10.40;99.90
7842;DHT22;3966;51.052;13.820;2023-01-15T05:53:35;10.50;99.90
7842;DHT22;3966;51.052;13.820;2023-01-15T05:56:01;10.40;99.90
7842;DHT22;3966;51.052;13.820;2023-01-15T05:58:27;10.40;99.90
7842;DHT22;3966;51.052;13.820;2023-01-15T06:00:53;10.40;99.90
7842;DHT22;3966;51.052;13.820;2023-01-15T06:03:23;10.50;99.90
7842;DHT22;3966;51.052;13.820;2023-01-15T06:05:50;10.50;99.90
7842;DHT22;3966;51.052;13.820;2023-01-15T06:08:16;10.50;99.90
7842;DHT22;3966;51.052;13.820;2023-01-15T06:10:46;10.50;99.90
7842;DHT22;3966;51.052;13.820;2023-01-15T06:13:12;10.50;99.90
7842;DHT22;3966;51.052;13.820;2023-01-15T06:15:38;10.50;99.90
7842;DHT22;3966;51.052;13.820;2023-01-15T06:18:03;10.50;99.90
7842;DHT22;3966;51.052;13.820;2023-01-15T06:20:29;10.50;99.90
7842;DHT22;3966;51.052;13.820;2023-01-15T06:22:55;10.50;99.90
7842;DHT22;3966;51.052;13.820;2023-01-15T06:25:20;10.50;99.90
7842;DHT22;3966;51.052;13.820;2023-01-15T06:27:46;10.50;99.90
7842;DHT22;3966;51.052;13.820;2023-01-15T06:30:14;10.50;99.90
7842;DHT22;3966;51.052;13.820;2023-01-15T06:32:40;10.50;99.90
7842;DHT22;3966;51.052;13.820;2023-01-15T06:35:06;10.50;99.90
7842;DHT22;3966;51.052;13.820;2023-01-15T06:37:31;10.50;99.90
7842;DHT22;3966;51.052;13.820;2023-01-15T06:39:57;10.40;99.90
7842;DHT22;3966;51.052;13.820;2023-01-15T06:42:23;10.50;99.90
7842;DHT22;3966;51.052;13.820;2023-01-15T06:45:09;10.50;99.90
7842;DHT22;3966;51.052;13.820;2023-01-15T06:47:54;10.50;99.90
7842;DHT22;3966;51.052;13.820;2023-01-15T06:50:20;10.30;99.90
7842;DHT22;3966;51.052;13.820;2023-01-15T06:52:46;10.20;99.90
7842;DHT22;3966;51.052;13.820;2023-01-15T06:55:11;10.00;99.90
7842;DHT22;3966;51.052;13.820;2023-01-15T06:57:40;9.80;99.90
7842;DHT22;3966;51.052;13.820;2023-01-15T07:00:07;9.50;99.90
7842;DHT22;3966;51.052;13.820;2023-01-15T07:02:33;9.00;99.90
7842;DHT22;3966;51.052;13.820;2023-01-15T07:04:59;8.30;99.90
7842;DHT22;3966;51.052;13.820;2023-01-15T07:07:26;7.70;99.90
7842;DHT22;3966;51.052;13.820;2023-01-15T07:09:51;7.50;99.90
7842;DHT22;3966;51.052;13.820;2023-01-15T07:12:17;7.30;99.90
7842;DHT22;3966;51.052;13.820;2023-01-15T07:14:43;7.10;99.90
7842;DHT22;3966;51.052;13.820;2023-01-15T07:17:09;6.90;99.90
7842;DHT22;3966;51.052;13.820;2023-01-15T07:19:35;6.90;99.90
7842;DHT22;3966;51.052;13.820;2023-01-15T07:22:01;6.80;99.90
7842;DHT22;3966;51.052;13.820;2023-01-15T07:24:26;6.60;99.90
7842;DHT22;3966;51.052;13.820;2023-01-15T07:26:52;6.60;99.90
7842;DHT22;3966;51.052;13.820;2023-01-15T07:29:18;6.50;99.90
7842;DHT22;3966;51.052;13.820;2023-01-15T07:31:43;6.50;99.90
7842;DHT22;3966;51.052;13.820;2023-01-15T07:34:09;6.50;99.90
7842;DHT22;3966;51.052;13.820;2023-01-15T07:36:36;6.50;99.90
7842;DHT22;3966;51.052;13.820;2023-01-15T07:39:06;6.50;99.90
7842;DHT22;3966;51.052;13.820;2023-01-15T07:41:32;6.50;99.90
7842;DHT22;3966;51.052;13.820;2023-01-15T07:44:16;6.50;99.90
7842;DHT22;3966;51.052;13.820;2023-01-15T07:47:01;6.50;99.90
7842;DHT22;3966;51.052;13.820;2023-01-15T07:49:46;6.50;99.90
7842;DHT22;3966;51.052;13.820;2023-01-15T07:52:20;6.40;99.90
7842;DHT22;3966;51.052;13.820;2023-01-15T07:54:48;6.30;99.90
7842;DHT22;3966;51.052;13.820;2023-01-15T07:57:17;6.30;99.90
7842;DHT22;3966;51.052;13.820;2023-01-15T07:59:43;6.30;99.90
7842;DHT22;3966;51.052;13.820;2023-01-15T08:02:09;6.30;99.90
7842;DHT22;3966;51.052;13.820;2023-01-15T08:04:35;6.30;99.90
7842;DHT22;3966;51.052;13.820;2023-01-15T08:07:02;6.20;99.90
7842;DHT22;3966;51.052;13.820;2023-01-15T08:09:28;6.20;99.90
7842;DHT22;3966;51.052;13.820;2023-01-15T08:11:55;6.20;99.90
7842;DHT22;3966;51.052;13.820;2023-01-15T08:14:39;6.20;99.90
7842;DHT22;3966;51.052;13.820;2023-01-15T08:17:23;6.10;99.90
7842;DHT22;3966;51.052;13.820;2023-01-15T08:19:48;6.10;99.90
7842;DHT22;3966;51.052;13.820;2023-01-15T08:22:14;6.10;99.90
7842;DHT22;3966;51.052;13.820;2023-01-15T08:24:40;6.10;99.90
7842;DHT22;3966;51.052;13.820;2023-01-15T08:27:05;6.10;99.90
7842;DHT22;3966;51.052;13.820;2023-01-15T08:29:34;6.10;99.90
7842;DHT22;3966;51.052;13.820;2023-01-15T08:32:00;6.20;99.90
7842;DHT22;3966;51.052;13.820;2023-01-15T08:34:25;6.20;99.90
7842;DHT22;3966;51.052;13.820;2023-01-15T08:36:51;6.10;99.90
7842;DHT22;3966;51.052;13.820;2023-01-15T08:39:27;6.10;99.90
7842;DHT22;3966;51.052;13.820;2023-01-15T08:41:56;6.10;99.90
7842;DHT22;3966;51.052;13.820;2023-01-15T08:44:22;6.20;99.90
7842;DHT22;3966;51.052;13.820;2023-01-15T08:46:49;6.10;99.90
7842;DHT22;3966;51.052;13.820;2023-01-15T08:49:16;6.20;99.90
7842;DHT22;3966;51.052;13.820;2023-01-15T08:51:43;6.20;99.90
7842;DHT22;3966;51.052;13.820;2023-01-15T08:54:09;6.20;99.90
7842;DHT22;3966;51.052;13.820;2023-01-15T08:56:35;6.20;99.90
7842;DHT22;3966;51.052;13.820;2023-01-15T08:59:07;6.10;99.90
7842;DHT22;3966;51.052;13.820;2023-01-15T09:01:33;6.10;99.90
7842;DHT22;3966;51.052;13.820;2023-01-15T09:03:59;6.10;99.90
7842;DHT22;3966;51.052;13.820;2023-01-15T09:06:25;6.20;99.90
7842;DHT22;3966;51.052;13.820;2023-01-15T09:08:51;6.10;99.90
7842;DHT22;3966;51.052;13.820;2023-01-15T09:11:17;6.10;99.90
7842;DHT22;3966;51.052;13.820;2023-01-15T09:13:42;6.10;99.90
7842;DHT22;3966;51.052;13.820;2023-01-15T09:16:08;6.20;99.90
7842;DHT22;3966;51.052;13.820;2023-01-15T09:18:36;6.30;99.90
7842;DHT22;3966;51.052;13.820;2023-01-15T09:21:02;6.20;99.90
7842;DHT22;3966;51.052;13.820;2023-01-15T09:23:28;6.20;99.90
7842;DHT22;3966;51.052;13.820;2023-01-15T09:25:59;6.20;99.90
7842;DHT22;3966;51.052;13.820;2023-01-15T09:28:26;6.20;99.90
7842;DHT22;3966;51.052;13.820;2023-01-15T09:30:51;6.20;99.90
7842;DHT22;3966;51.052;13.820;2023-01-15T09:33:17;6.20;99.90
7842;DHT22;3966;51.052;13.820;2023-01-15T09:35:43;6.20;99.90
7842;DHT22;3966;51.052;13.820;2023-01-15T09:38:14;6.30;99.90
7842;DHT22;3966;51.052;13.820;2023-01-15T09:40:52;6.10;99.90
7842;DHT22;3966;51.052;13.820;2023-01-15T09:46:22;6.10;99.90
7842;DHT22;3966;51.052;13.820;2023-01-15T09:57:17;6.20;99.90
7842;DHT22;3966;51.052;13.820;2023-01-15T09:59:46;6.20;99.90
7842;DHT22;3966;51.052;13.820;2023-01-15T10:02:26;6.30;99.90
7842;DHT22;3966;51.052;13.820;2023-01-15T10:04:58;6.30;99.90
7842;DHT22;3966;51.052;13.820;2023-01-15T10:07:33;6.30;99.90
7842;DHT22;3966;51.052;13.820;2023-01-15T10:10:02;6.40;99.90
7842;DHT22;3966;51.052;13.820;2023-01-15T10:12:30;6.40;99.90
7842;DHT22;3966;51.052;13.820;2023-01-15T10:17:45;6.60;99.90
7842;DHT22;3966;51.052;13.820;2023-01-15T10:20:14;6.60;99.90
7842;DHT22;3966;51.052;13.820;2023-01-15T10:26:07;6.70;99.90
7842;DHT22;3966;51.052;13.820;2023-01-15T10:39:57;6.80;99.90
7842;DHT22;3966;51.052;13.820;2023-01-15T10:45:29;6.90;99.90
7842;DHT22;3966;51.052;13.820;2023-01-15T10:51:05;6.90;99.90
7842;DHT22;3966;51.052;13.820;2023-01-15T10:54:30;7.00;99.90
7842;DHT22;3966;51.052;13.820;2023-01-15T10:56:41;7.00;99.90
7842;DHT22;3966;51.052;13.820;2023-01-15T10:59:18;7.00;99.90
7842;DHT22;3966;51.052;13.820;2023-01-15T11:01:50;6.90;99.90
7842;DHT22;3966;51.052;13.820;2023-01-15T11:04:17;6.90;99.90
7842;DHT22;3966;51.052;13.820;2023-01-15T11:06:42;6.90;99.90
7842;DHT22;3966;51.052;13.820;2023-01-15T11:09:20;6.90;99.90
7842;DHT22;3966;51.052;13.820;2023-01-15T11:11:53;7.00;99.90
7842;DHT22;3966;51.052;13.820;2023-01-15T11:17:25;7.00;99.90
7842;DHT22;3966;51.052;13.820;2023-01-15T11:22:43;6.90;99.90
7842;DHT22;3966;51.052;13.820;2023-01-15T11:25:08;6.80;99.90
7842;DHT22;3966;51.052;13.820;2023-01-15T11:27:36;6.80;99.90
7842;DHT22;3966;51.052;13.820;2023-01-15T11:30:05;6.90;99.90
7842;DHT22;3966;51.052;13.820;2023-01-15T11:32:33;6.90;99.90
7842;DHT22;3966;51.052;13.820;2023-01-15T11:35:18;7.00;99.90
7842;DHT22;3966;51.052;13.820;2023-01-15T11:37:44;6.90;99.90
7842;DHT22;3966;51.052;13.820;2023-01-15T11:40:16;7.00;99.90
7842;DHT22;3966;51.052;13.820;2023-01-15T11:42:46;7.10;99.90
7842;DHT22;3966;51.052;13.820;2023-01-15T11:45:31;7.00;99.90
7842;DHT22;3966;51.052;13.820;2023-01-15T11:48:24;6.90;99.90
7842;DHT22;3966;51.052;13.820;2023-01-15T11:51:13;6.90;99.90
7842;DHT22;3966;51.052;13.820;2023-01-15T11:53:46;7.10;99.90
7842;DHT22;3966;51.052;13.820;2023-01-15T11:56:19;7.10;99.90
7842;DHT22;3966;51.052;13.820;2023-01-15T11:58:52;7.20;99.90
7842;DHT22;3966;51.052;13.820;2023-01-15T12:01:31;7.20;99.90
7842;DHT22;3966;51.052;13.820;2023-01-15T12:03:59;7.20;99.90
7842;DHT22;3966;51.052;13.820;2023-01-15T12:06:26;7.20;99.90
7842;DHT22;3966;51.052;13.820;2023-01-15T12:11:45;7.40;99.90
7842;DHT22;3966;51.052;13.820;2023-01-15T12:28:26;7.50;99.90
7842;DHT22;3966;51.052;13.820;2023-01-15T12:33:48;7.50;99.90
7842;DHT22;3966;51.052;13.820;2023-01-15T12:41:39;7.70;99.90
7842;DHT22;3966;51.052;13.820;2023-01-15T12:47:17;7.80;99.90
7842;DHT22;3966;51.052;13.820;2023-01-15T12:49:54;7.80;99.90
7842;DHT22;3966;51.052;13.820;2023-01-15T12:52:26;7.80;99.90
7842;DHT22;3966;51.052;13.820;2023-01-15T12:57:30;7.90;99.90
7842;DHT22;3966;51.052;13.820;2023-01-15T13:00:11;7.90;99.90
7842;DHT22;3966;51.052;13.820;2023-01-15T13:03:18;8.00;99.90
7842;DHT22;3966;51.052;13.820;2023-01-15T13:06:01;8.00;99.90
7842;DHT22;3966;51.052;13.820;2023-01-15T13:08:38;8.00;99.90
7842;DHT22;3966;51.052;13.820;2023-01-15T13:11:12;8.10;99.90
7842;DHT22;3966;51.052;13.820;2023-01-15T13:13:41;8.10;99.90
7842;DHT22;3966;51.052;13.820;2023-01-15T13:16:23;7.90;99.90
7842;DHT22;3966;51.052;13.820;2023-01-15T13:19:15;7.50;99.90
7842;DHT22;3966;51.052;13.820;2023-01-15T13:21:44;7.60;99.90
7842;DHT22;3966;51.052;13.820;2023-01-15T13:27:55;7.50;99.90
7842;DHT22;3966;51.052;13.820;2023-01-15T13:35:47;7.50;99.90
7842;DHT22;3966;51.052;13.820;2023-01-15T13:38:21;7.60;99.90
7842;DHT22;3966;51.052;13.820;2023-01-15T13:40:51;7.70;99.90
7842;DHT22;3966;51.052;13.820;2023-01-15T13:43:40;7.70;99.90
7842;DHT22;3966;51.052;13.820;2023-01-15T13:46:12;7.70;99.90
7842;DHT22;3966;51.052;13.820;2023-01-15T13:49:04;7.70;99.90
7842;DHT22;3966;51.052;13.820;2023-01-15T13:51:33;7.70;99.90
7842;DHT22;3966;51.052;13.820;2023-01-15T13:54:17;7.60;99.90
7842;DHT22;3966;51.052;13.820;2023-01-15T13:56:43;7.60;99.90
7842;DHT22;3966;51.052;13.820;2023-01-15T14:01:57;7.50;99.90
7842;DHT22;3966;51.052;13.820;2023-01-15T14:04:35;7.50;99.90
7842;DHT22;3966;51.052;13.820;2023-01-15T14:07:02;7.60;99.90
7842;DHT22;3966;51.052;13.820;2023-01-15T14:09:28;7.70;99.90
7842;DHT22;3966;51.052;13.820;2023-01-15T14:23:00;8.30;99.90
7842;DHT22;3966;51.052;13.820;2023-01-15T14:34:30;8.20;99.90
7842;DHT22;3966;51.052;13.820;2023-01-15T14:37:00;7.90;99.90
7842;DHT22;3966;51.052;13.820;2023-01-15T14:39:30;7.70;99.90
7842;DHT22;3966;51.052;13.820;2023-01-15T14:45:29;7.70;99.90
7842;DHT22;3966;51.052;13.820;2023-01-15T14:47:56;7.60;99.90
7842;DHT22;3966;51.052;13.820;2023-01-15T14:52:51;7.60;99.90
7842;DHT22;3966;51.052;13.820;2023-01-15T14:55:18;7.50;99.90
7842;DHT22;3966;51.052;13.820;2023-01-15T14:58:01;7.50;99.90
7842;DHT22;3966;51.052;13.820;2023-01-15T15:00:35;7.40;99.90
7842;DHT22;3966;51.052;13.820;2023-01-15T15:03:02;7.40;99.90
7842;DHT22;3966;51.052;13.820;2023-01-15T15:05:30;7.40;99.90
7842;DHT22;3966;51.052;13.820;2023-01-15T15:07:58;7.40;99.90
7842;DHT22;3966;51.052;13.820;2023-01-15T15:10:30;7.40;99.90
7842;DHT22;3966;51.052;13.820;2023-01-15T15:15:44;7.20;99.90
7842;DHT22;3966;51.052;13.820;2023-01-15T15:18:14;7.20;99.90
7842;DHT22;3966;51.052;13.820;2023-01-15T15:21:09;7.20;99.90
7842;DHT22;3966;51.052;13.820;2023-01-15T15:26:30;7.10;99.90
7842;DHT22;3966;51.052;13.820;2023-01-15T15:31:31;7.00;99.90
7842;DHT22;3966;51.052;13.820;2023-01-15T15:33:57;7.00;99.90
7842;DHT22;3966;51.052;13.820;2023-01-15T15:36:26;7.00;99.90
7842;DHT22;3966;51.052;13.820;2023-01-15T15:38:58;7.00;99.90
7842;DHT22;3966;51.052;13.820;2023-01-15T15:41:28;7.00;99.90
7842;DHT22;3966;51.052;13.820;2023-01-15T15:44:19;7.00;99.90
7842;DHT22;3966;51.052;13.820;2023-01-15T15:47:25;7.00;99.90
7842;DHT22;3966;51.052;13.820;2023-01-15T15:50:27;6.90;99.90
7842;DHT22;3966;51.052;13.820;2023-01-15T15:52:56;6.90;99.90
7842;DHT22;3966;51.052;13.820;2023-01-15T15:55:24;6.90;99.90
7842;DHT22;3966;51.052;13.820;2023-01-15T15:57:55;6.80;99.90
7842;DHT22;3966;51.052;13.820;2023-01-15T16:00:33;6.80;99.90
7842;DHT22;3966;51.052;13.820;2023-01-15T16:03:05;6.80;99.90
7842;DHT22;3966;51.052;13.820;2023-01-15T16:05:32;6.70;99.90
7842;DHT22;3966;51.052;13.820;2023-01-15T16:08:27;6.70;99.90
7842;DHT22;3966;51.052;13.820;2023-01-15T16:10:55;6.60;99.90
7842;DHT22;3966;51.052;13.820;2023-01-15T16:13:29;6.60;99.90
7842;DHT22;3966;51.052;13.820;2023-01-15T16:15:57;6.60;99.90
7842;DHT22;3966;51.052;13.820;2023-01-15T16:18:41;6.60;99.90
7842;DHT22;3966;51.052;13.820;2023-01-15T16:21:14;6.60;99.90
7842;DHT22;3966;51.052;13.820;2023-01-15T16:23:41;6.50;99.90
7842;DHT22;3966;51.052;13.820;2023-01-15T16:26:12;6.50;99.90
7842;DHT22;3966;51.052;13.820;2023-01-15T16:28:42;6.50;99.90
7842;DHT22;3966;51.052;13.820;2023-01-15T16:31:12;6.50;99.90
7842;DHT22;3966;51.052;13.820;2023-01-15T16:33:39;6.50;99.90
7842;DHT22;3966;51.052;13.820;2023-01-15T16:36:06;6.40;99.90
7842;DHT22;3966;51.052;13.820;2023-01-15T16:38:38;6.40;99.90
7842;DHT22;3966;51.052;13.820;2023-01-15T16:41:05;6.40;99.90
7842;DHT22;3966;51.052;13.820;2023-01-15T16:43:31;6.40;99.90
7842;DHT22;3966;51.052;13.820;2023-01-15T16:46:06;6.30;99.90
7842;DHT22;3966;51.052;13.820;2023-01-15T16:48:40;6.30;99.90
7842;DHT22;3966;51.052;13.820;2023-01-15T16:54:03;6.40;99.90
7842;DHT22;3966;51.052;13.820;2023-01-15T16:59:02;6.30;99.90
7842;DHT22;3966;51.052;13.820;2023-01-15T17:01:42;6.40;99.90
7842;DHT22;3966;51.052;13.820;2023-01-15T17:04:27;6.30;99.90
7842;DHT22;3966;51.052;13.820;2023-01-15T17:09:24;6.30;99.90
7842;DHT22;3966;51.052;13.820;2023-01-15T17:11:50;6.30;99.90
7842;DHT22;3966;51.052;13.820;2023-01-15T17:14:27;6.30;99.90
7842;DHT22;3966;51.052;13.820;2023-01-15T17:19:46;6.30;99.90
7842;DHT22;3966;51.052;13.820;2023-01-15T17:22:24;6.20;99.90
7842;DHT22;3966;51.052;13.820;2023-01-15T17:24:52;6.10;99.90
7842;DHT22;3966;51.052;13.820;2023-01-15T17:27:18;6.10;99.90
7842;DHT22;3966;51.052;13.820;2023-01-15T17:29:44;6.10;99.90
7842;DHT22;3966;51.052;13.820;2023-01-15T17:35:42;6.10;99.90
7842;DHT22;3966;51.052;13.820;2023-01-15T17:38:12;5.90;99.90
7842;DHT22;3966;51.052;13.820;2023-01-15T17:40:38;6.00;99.90
7842;DHT22;3966;51.052;13.820;2023-01-15T17:43:05;6.00;99.90
7842;DHT22;3966;51.052;13.820;2023-01-15T17:45:31;6.00;99.90
7842;DHT22;3966;51.052;13.820;2023-01-15T17:47:57;6.00;99.90
7842;DHT22;3966;51.052;13.820;2023-01-15T17:50:23;5.90;99.90
7842;DHT22;3966;51.052;13.820;2023-01-15T17:52:49;5.90;99.90
7842;DHT22;3966;51.052;13.820;2023-01-15T17:55:20;5.90;99.90
7842;DHT22;3966;51.052;13.820;2023-01-15T17:58:07;5.90;99.90
7842;DHT22;3966;51.052;13.820;2023-01-15T18:00:51;5.90;99.90
7842;DHT22;3966;51.052;13.820;2023-01-15T18:03:42;5.90;99.90
7842;DHT22;3966;51.052;13.820;2023-01-15T18:06:27;5.90;99.90
7842;DHT22;3966;51.052;13.820;2023-01-15T18:08:54;5.90;99.90
7842;DHT22;3966;51.052;13.820;2023-01-15T18:11:21;5.90;99.90
7842;DHT22;3966;51.052;13.820;2023-01-15T18:13:47;5.90;99.90
7842;DHT22;3966;51.052;13.820;2023-01-15T18:16:13;5.90;99.90
7842;DHT22;3966;51.052;13.820;2023-01-15T18:18:40;6.00;99.90
7842;DHT22;3966;51.052;13.820;2023-01-15T18:21:05;5.90;99.90
7842;DHT22;3966;51.052;13.820;2023-01-15T18:23:31;5.80;99.90
7842;DHT22;3966;51.052;13.820;2023-01-15T18:26:04;5.80;99.90
7842;DHT22;3966;51.052;13.820;2023-01-15T18:28:34;5.80;99.90
7842;DHT22;3966;51.052;13.820;2023-01-15T18:31:01;5.90;99.90
7842;DHT22;3966;51.052;13.820;2023-01-15T18:33:27;5.90;99.90
7842;DHT22;3966;51.052;13.820;2023-01-15T18:38:28;5.80;99.90
7842;DHT22;3966;51.052;13.820;2023-01-15T18:40:53;5.90;99.90
7842;DHT22;3966;51.052;13.820;2023-01-15T18:43:19;5.90;99.90
7842;DHT22;3966;51.052;13.820;2023-01-15T18:46:05;5.80;99.90
7842;DHT22;3966;51.052;13.820;2023-01-15T18:48:49;5.80;99.90
7842;DHT22;3966;51.052;13.820;2023-01-15T18:51:14;5.70;99.90
7842;DHT22;3966;51.052;13.820;2023-01-15T18:53:40;5.80;99.90
7842;DHT22;3966;51.052;13.820;2023-01-15T18:56:06;5.80;99.90
7842;DHT22;3966;51.052;13.820;2023-01-15T18:58:31;5.80;99.90
7842;DHT22;3966;51.052;13.820;2023-01-15T19:00:57;5.80;99.90
7842;DHT22;3966;51.052;13.820;2023-01-15T19:03:30;5.80;99.90
7842;DHT22;3966;51.052;13.820;2023-01-15T19:06:06;5.80;99.90
7842;DHT22;3966;51.052;13.820;2023-01-15T19:08:31;5.80;99.90